createdAt,value
2023-01-28T00:01:31.045Z,11.51
2023-01-28T00:04:01.622Z,12.03
2023-01-28T00:06:32.171Z,11.50
2023-01-28T00:09:02.651Z,11.58
2023-01-28T00:11:33.829Z,11.48
2023-01-28T00:14:05.023Z,10.86
2023-01-28T00:16:35.925Z,11.00
2023-01-28T00:19:06.551Z,11.62
2023-01-28T00:21:38.250Z,11.44
2023-01-28T00:24:09.996Z,11.36
2023-01-28T00:26:40.500Z,11.27
2023-01-28T00:29:10.983Z,11.87
2023-01-28T00:31:41.447Z,11.62
2023-01-28T00:34:12.017Z,12.03
2023-01-28T00:36:42.565Z,11.47
2023-01-28T00:39:17.324Z,11.55
2023-01-28T00:41:47.790Z,11.60
2023-01-28T00:44:18.270Z,11.18
2023-01-28T00:46:48.837Z,10.95
2023-01-28T00:49:19.748Z,11.05
2023-01-28T00:51:50.187Z,11.44
2023-01-28T00:54:22.227Z,11.74
2023-01-28T00:56:53.873Z,11.24
2023-01-28T00:59:24.377Z,11.59
2023-01-28T01:01:57.740Z,11.24
2023-01-28T01:04:32.448Z,11.35
2023-01-28T01:07:04.119Z,11.58
2023-01-28T01:09:34.651Z,11.02
2023-01-28T01:12:05.386Z,10.92
2023-01-28T01:14:37.013Z,11.04
2023-01-28T01:17:08.005Z,11.08
2023-01-28T01:19:39.019Z,10.46
2023-01-28T01:22:09.449Z,10.91
2023-01-28T01:24:39.943Z,10.84
2023-01-28T01:27:10.421Z,11.66
2023-01-28T01:29:40.928Z,11.11
2023-01-28T01:32:12.613Z,11.12
2023-01-28T01:34:43.300Z,10.91
2023-01-28T01:37:13.748Z,11.07
2023-01-28T01:39:45.581Z,11.21
2023-01-28T01:42:16.823Z,10.89
2023-01-28T01:44:59.573Z,10.88
2023-01-28T01:47:33.104Z,11.06
2023-01-28T01:50:15.494Z,11.31
2023-01-28T01:52:49.549Z,10.92
2023-01-28T01:55:23.650Z,11.22
2023-01-28T01:57:57.807Z,11.10
2023-01-28T02:00:28.356Z,10.97
2023-01-28T02:02:59.179Z,11.27
2023-01-28T02:05:29.682Z,11.69
2023-01-28T02:08:02.932Z,10.94
2023-01-28T02:10:33.752Z,11.28
2023-01-28T02:13:04.318Z,11.38
2023-01-28T02:15:35.081Z,11.05
2023-01-28T02:18:07.267Z,10.66
2023-01-28T02:21:06.580Z,10.45
2023-01-28T02:23:48.656Z,11.09
2023-01-28T02:26:29.093Z,10.91
2023-01-28T02:29:14.166Z,10.95
2023-01-28T02:31:47.732Z,11.06
2023-01-28T02:34:49.000Z,10.93
2023-01-28T02:37:34.868Z,10.98
2023-01-28T02:40:14.082Z,10.55
2023-01-28T02:42:44.625Z,10.80
2023-01-28T02:45:28.464Z,10.87
2023-01-28T02:47:58.924Z,10.67
2023-01-28T02:50:34.951Z,11.20
2023-01-28T02:53:32.375Z,10.95
2023-01-28T02:56:20.757Z,10.49
2023-01-28T02:58:56.690Z,11.23
2023-01-28T03:01:35.809Z,11.03
2023-01-28T03:04:22.404Z,11.51
2023-01-28T03:06:55.890Z,11.34
2023-01-28T03:09:27.788Z,11.21
2023-01-28T03:12:22.179Z,11.49
2023-01-28T03:15:19.646Z,10.66
2023-01-28T03:18:13.530Z,10.93
2023-01-28T03:21:26.101Z,11.57
2023-01-28T03:24:20.253Z,11.09
2023-01-28T03:27:15.789Z,11.32
2023-01-28T03:30:05.309Z,11.01
2023-01-28T03:32:54.966Z,11.81
2023-01-28T03:35:45.971Z,11.75
2023-01-28T03:38:22.250Z,11.73
2023-01-28T03:41:00.455Z,11.26
2023-01-28T03:43:32.235Z,11.20
2023-01-28T03:46:03.057Z,11.31
2023-01-28T03:48:34.119Z,11.89
2023-01-28T03:51:04.807Z,11.83
2023-01-28T03:53:36.046Z,11.53
2023-01-28T03:56:06.715Z,11.04
2023-01-28T03:58:50.726Z,10.92
2023-01-28T04:01:21.781Z,11.06
2023-01-28T04:03:53.669Z,10.98
2023-01-28T04:06:24.231Z,11.35
2023-01-28T04:08:56.555Z,11.13
2023-01-28T04:11:28.457Z,11.51
2023-01-28T04:14:00.005Z,11.27
2023-01-28T04:16:30.588Z,11.50
2023-01-28T04:19:01.235Z,10.91
2023-01-28T04:21:32.826Z,11.15
2023-01-28T04:24:03.614Z,11.22
2023-01-28T04:26:34.253Z,11.46
2023-01-28T04:29:04.996Z,11.60
2023-01-28T04:31:36.110Z,11.48
2023-01-28T04:34:07.469Z,11.88
2023-01-28T04:36:38.018Z,11.58
2023-01-28T04:39:08.606Z,11.59
2023-01-28T04:41:39.273Z,10.80
2023-01-28T04:44:11.009Z,11.30
2023-01-28T04:46:41.551Z,11.44
2023-01-28T04:49:13.294Z,11.61
2023-01-28T04:51:43.808Z,11.78
2023-01-28T04:54:14.303Z,11.34
2023-01-28T04:56:44.754Z,11.33
2023-01-28T04:59:16.334Z,11.78
2023-01-28T05:01:46.869Z,11.95
2023-01-28T05:04:17.503Z,11.58
2023-01-28T05:06:47.950Z,11.84
2023-01-28T05:09:18.673Z,11.58
2023-01-28T05:11:50.210Z,11.74
2023-01-28T05:14:21.799Z,11.15
2023-01-28T05:16:52.635Z,11.43
2023-01-28T05:19:23.331Z,11.39
2023-01-28T05:21:54.074Z,11.93
2023-01-28T05:24:24.745Z,11.59
2023-01-28T05:26:55.209Z,11.50
2023-01-28T05:29:25.689Z,11.21
2023-01-28T05:31:56.149Z,11.04
2023-01-28T05:34:26.815Z,11.62
2023-01-28T05:36:58.387Z,11.63
2023-01-28T05:39:29.053Z,10.87
2023-01-28T05:41:59.540Z,11.37
2023-01-28T05:44:30.016Z,11.81
2023-01-28T05:47:00.460Z,11.82
2023-01-28T05:49:31.099Z,11.10
2023-01-28T05:52:02.351Z,11.43
2023-01-28T05:54:32.857Z,11.52
2023-01-28T05:57:04.482Z,11.57
2023-01-28T05:59:34.946Z,11.59
2023-01-28T06:02:05.912Z,11.42
2023-01-28T06:04:36.641Z,11.77
2023-01-28T06:07:07.143Z,11.45
2023-01-28T06:09:37.584Z,11.52
2023-01-28T06:12:08.267Z,11.22
2023-01-28T06:14:38.751Z,11.48
2023-01-28T06:17:09.580Z,11.45
2023-01-28T06:19:40.048Z,11.18
2023-01-28T06:22:10.821Z,11.41
2023-01-28T06:24:41.278Z,10.48
2023-01-28T06:27:11.852Z,11.26
2023-01-28T06:29:42.314Z,11.26
2023-01-28T06:32:12.865Z,11.31
2023-01-28T06:34:43.432Z,11.69
2023-01-28T06:37:17.034Z,11.72
2023-01-28T06:39:47.489Z,10.87
2023-01-28T06:42:17.955Z,10.91
2023-01-28T06:44:48.472Z,10.76
2023-01-28T06:47:18.931Z,10.61
2023-01-28T06:49:49.564Z,11.23
2023-01-28T06:52:20.476Z,10.96
2023-01-28T06:54:50.945Z,11.06
2023-01-28T06:57:21.594Z,10.87
2023-01-28T06:59:52.635Z,11.12
2023-01-28T07:02:23.125Z,11.57
2023-01-28T07:04:53.726Z,10.95
2023-01-28T07:07:24.207Z,10.96
2023-01-28T07:09:54.886Z,11.30
2023-01-28T07:12:25.419Z,11.50
2023-01-28T07:14:55.903Z,11.22
2023-01-28T07:17:26.451Z,11.38
2023-01-28T07:19:56.916Z,11.50
2023-01-28T07:22:27.347Z,11.22
2023-01-28T07:24:59.129Z,10.98
2023-01-28T07:27:29.554Z,11.18
2023-01-28T07:30:00.036Z,11.56
2023-01-28T07:32:30.459Z,11.62
2023-01-28T07:35:01.038Z,11.59
2023-01-28T07:37:32.735Z,11.38
2023-01-28T07:40:03.214Z,11.01
2023-01-28T07:42:33.775Z,11.24
2023-01-28T07:45:05.383Z,11.57
2023-01-28T07:47:35.871Z,11.90
2023-01-28T07:50:06.702Z,11.41
2023-01-28T07:52:40.125Z,11.18
2023-01-28T07:55:12.030Z,11.68
2023-01-28T07:57:59.824Z,11.46
2023-01-28T08:00:32.941Z,11.59
2023-01-28T08:03:08.760Z,11.27
2023-01-28T08:05:44.743Z,11.56
2023-01-28T08:08:16.051Z,11.74
2023-01-28T08:10:47.221Z,11.59
2023-01-28T08:13:18.692Z,11.11
2023-01-28T08:15:49.590Z,11.64
2023-01-28T08:18:20.131Z,11.45
2023-01-28T08:20:50.886Z,11.93
2023-01-28T08:23:23.280Z,12.07
2023-01-28T08:25:54.679Z,12.15
2023-01-28T08:28:25.200Z,11.70
2023-01-28T08:30:55.840Z,12.01
2023-01-28T08:33:26.442Z,11.72
2023-01-28T08:35:57.020Z,12.05
2023-01-28T08:38:27.440Z,11.55
2023-01-28T08:41:02.776Z,11.76
2023-01-28T08:43:32.988Z,11.60
2023-01-28T08:46:08.191Z,12.85
2023-01-28T08:48:39.898Z,12.32
2023-01-28T08:51:11.136Z,12.11
2023-01-28T08:53:41.575Z,12.09
2023-01-28T08:56:12.425Z,11.70
2023-01-28T08:58:42.915Z,11.32
2023-01-28T09:01:13.427Z,11.59
2023-01-28T09:03:43.953Z,11.90
2023-01-28T09:06:14.479Z,12.02
2023-01-28T09:08:44.944Z,11.89
2023-01-28T09:11:15.412Z,11.68
2023-01-28T09:13:45.856Z,11.61
2023-01-28T09:16:16.400Z,11.86
2023-01-28T09:18:48.580Z,11.60
2023-01-28T09:21:23.528Z,11.66
2023-01-28T09:24:01.040Z,12.13
2023-01-28T09:26:33.285Z,12.07
2023-01-28T09:29:03.765Z,11.71
2023-01-28T09:31:34.351Z,11.78
2023-01-28T09:34:04.887Z,12.37
2023-01-28T09:36:35.930Z,12.65
2023-01-28T09:39:08.649Z,12.62
2023-01-28T09:41:55.709Z,12.66
2023-01-28T09:44:35.053Z,12.68
2023-01-28T09:47:08.261Z,12.65
2023-01-28T09:49:47.804Z,12.46
2023-01-28T09:52:21.545Z,12.87
2023-01-28T09:54:59.080Z,12.65
2023-01-28T09:57:43.020Z,12.78
2023-01-28T10:00:20.678Z,12.44
2023-01-28T10:03:22.795Z,12.98
2023-01-28T10:06:03.602Z,12.68
2023-01-28T10:08:40.063Z,12.68
2023-01-28T10:11:19.379Z,12.46
2023-01-28T10:14:04.951Z,12.64
2023-01-28T10:16:44.134Z,12.72
2023-01-28T10:19:20.301Z,12.57
2023-01-28T10:21:59.898Z,12.74
2023-01-28T10:24:33.322Z,12.57
2023-01-28T10:27:04.631Z,12.58
2023-01-28T10:29:36.628Z,12.70
2023-01-28T10:32:18.499Z,12.83
2023-01-28T10:34:49.164Z,12.78
2023-01-28T10:37:20.037Z,12.78
2023-01-28T10:39:52.239Z,12.68
2023-01-28T10:42:28.445Z,12.51
2023-01-28T10:45:04.369Z,12.71
2023-01-28T10:47:46.825Z,12.50
2023-01-28T10:50:20.541Z,12.55
2023-01-28T10:52:59.227Z,12.84
2023-01-28T10:55:32.829Z,12.40
2023-01-28T10:58:05.975Z,13.03
2023-01-28T11:00:40.337Z,12.57
2023-01-28T11:03:19.538Z,12.61
2023-01-28T11:05:55.521Z,12.67
2023-01-28T11:08:28.696Z,12.86
2023-01-28T11:10:59.828Z,12.77
2023-01-28T11:13:31.726Z,13.03
2023-01-28T11:16:15.306Z,12.97
2023-01-28T11:19:06.881Z,12.84
2023-01-28T11:21:37.669Z,13.06
2023-01-28T11:24:17.064Z,12.89
2023-01-28T11:26:50.550Z,13.17
2023-01-28T11:29:36.747Z,13.04
2023-01-28T11:32:08.757Z,12.82
2023-01-28T11:34:42.215Z,12.72
2023-01-28T11:37:16.843Z,12.47
2023-01-28T11:39:47.292Z,12.82
2023-01-28T11:42:23.026Z,12.68
2023-01-28T11:44:53.487Z,13.05
2023-01-28T11:47:35.759Z,12.32
2023-01-28T11:50:21.273Z,12.22
2023-01-28T11:53:06.835Z,12.70
2023-01-28T11:55:49.976Z,12.21
2023-01-28T11:58:32.400Z,12.47
2023-01-28T12:01:13.145Z,12.37
2023-01-28T12:03:49.654Z,12.58
2023-01-28T12:06:46.929Z,12.65
2023-01-28T12:09:26.417Z,12.07
2023-01-28T12:12:14.432Z,12.43
2023-01-28T12:15:10.483Z,12.20
2023-01-28T12:18:15.859Z,12.35
2023-01-28T12:20:55.087Z,12.17
2023-01-28T12:23:57.606Z,12.71
2023-01-28T12:26:56.847Z,12.57
2023-01-28T12:29:30.226Z,12.46
2023-01-28T12:32:34.122Z,13.06
2023-01-28T12:35:13.130Z,12.23
2023-01-28T12:37:58.087Z,12.32
2023-01-28T12:40:50.965Z,12.32
2023-01-28T12:43:30.396Z,12.84
2023-01-28T12:46:03.799Z,12.40
2023-01-28T12:48:40.983Z,12.37
2023-01-28T12:51:23.400Z,12.66
2023-01-28T12:54:01.028Z,12.52
2023-01-28T12:56:34.397Z,12.32
2023-01-28T12:59:22.517Z,12.66
2023-01-28T13:01:55.926Z,12.16
2023-01-28T13:04:50.739Z,12.50
2023-01-28T13:07:32.459Z,12.86
2023-01-28T13:10:08.891Z,12.47
2023-01-28T13:12:42.199Z,12.50
2023-01-28T13:15:18.384Z,12.35
2023-01-28T13:18:01.673Z,12.02
2023-01-28T13:20:55.657Z,12.03
2023-01-28T13:23:28.195Z,12.18
2023-01-28T13:26:00.297Z,12.07
2023-01-28T13:28:33.661Z,11.44
2023-01-28T13:31:10.301Z,12.09
2023-01-28T13:33:42.973Z,12.07
2023-01-28T13:36:37.444Z,12.45
2023-01-28T13:39:25.428Z,12.83
2023-01-28T13:42:10.264Z,12.25
2023-01-28T13:44:40.865Z,12.56
2023-01-28T13:47:14.219Z,12.15
2023-01-28T13:49:47.686Z,11.95
2023-01-28T13:52:33.971Z,11.80
2023-01-28T13:55:26.050Z,11.80
2023-01-28T13:58:08.290Z,11.85
2023-01-28T14:00:50.545Z,11.99
2023-01-28T14:03:26.705Z,12.33
2023-01-28T14:06:21.639Z,12.13
2023-01-28T14:12:07.116Z,12.38
2023-01-28T14:14:58.795Z,12.56
2023-01-28T14:17:50.541Z,12.26
2023-01-28T14:20:30.050Z,12.18
2023-01-28T14:23:06.770Z,11.98
2023-01-28T14:25:43.858Z,11.75
2023-01-28T14:28:17.253Z,11.95
2023-01-28T14:30:52.008Z,12.45
2023-01-28T14:33:24.349Z,12.68
2023-01-28T14:35:56.641Z,11.54
2023-01-28T14:38:27.087Z,12.06
2023-01-28T14:40:57.657Z,12.12
2023-01-28T14:43:29.172Z,11.88
2023-01-28T14:46:14.461Z,11.40
2023-01-28T14:49:03.032Z,11.68
2023-01-28T14:51:51.369Z,12.23
2023-01-28T14:54:46.019Z,12.19
2023-01-28T14:57:41.829Z,11.92
2023-01-28T15:00:24.529Z,12.06
2023-01-28T15:02:55.328Z,12.01
2023-01-28T15:05:28.696Z,11.63
2023-01-28T15:07:59.370Z,11.80
2023-01-28T15:10:33.381Z,12.02
2023-01-28T15:13:12.837Z,12.18
2023-01-28T15:15:45.235Z,11.90
2023-01-28T15:18:20.179Z,12.27
2023-01-28T15:20:53.664Z,12.17
2023-01-28T15:23:30.006Z,12.54
2023-01-28T15:26:00.989Z,12.38
2023-01-28T15:28:34.266Z,12.17
2023-01-28T15:31:05.371Z,11.88
2023-01-28T15:33:35.996Z,12.23
2023-01-28T15:36:07.875Z,12.41
2023-01-28T15:38:39.523Z,12.31
2023-01-28T15:41:09.992Z,12.46
2023-01-28T15:43:41.668Z,12.43
2023-01-28T15:46:14.123Z,12.66
2023-01-28T15:48:47.888Z,12.80
2023-01-28T15:51:32.385Z,12.64
2023-01-28T15:54:08.632Z,12.51
2023-01-28T15:56:39.268Z,12.52
2023-01-28T15:59:28.867Z,12.75
2023-01-28T16:02:23.946Z,12.24
2023-01-28T16:05:03.359Z,12.81
2023-01-28T16:07:36.210Z,12.77
2023-01-28T16:10:08.043Z,12.88
2023-01-28T16:12:38.939Z,12.83
2023-01-28T16:15:12.625Z,12.04
2023-01-28T16:17:45.735Z,12.06
2023-01-28T16:20:25.808Z,11.96
2023-01-28T16:22:58.935Z,12.71
2023-01-28T16:25:32.530Z,11.43
2023-01-28T16:28:05.547Z,11.98
2023-01-28T16:30:36.178Z,12.18
2023-01-28T16:33:06.810Z,12.31
2023-01-28T16:36:01.319Z,12.38
2023-01-28T16:38:10.292Z,12.30
2023-01-28T16:40:40.878Z,12.30
2023-01-28T16:43:14.625Z,12.41
2023-01-28T16:45:46.373Z,12.50
2023-01-28T16:48:18.236Z,12.31
2023-01-28T16:50:48.884Z,11.65
2023-01-28T16:53:28.758Z,12.03
2023-01-28T16:55:59.726Z,12.51
2023-01-28T16:58:30.816Z,12.16
2023-01-28T17:01:01.933Z,12.26
2023-01-28T17:03:32.623Z,11.92
2023-01-28T17:06:03.201Z,11.97
2023-01-28T17:08:34.507Z,12.04
2023-01-28T17:11:05.360Z,12.08
2023-01-28T17:13:37.852Z,12.40
2023-01-28T17:16:10.670Z,12.25
2023-01-28T17:18:44.463Z,11.97
2023-01-28T17:21:19.808Z,12.16
2023-01-28T17:23:52.882Z,11.61
2023-01-28T17:26:25.626Z,11.86
2023-01-28T17:29:01.725Z,12.14
2023-01-28T17:31:36.993Z,11.64
2023-01-28T17:34:10.568Z,12.32
2023-01-28T17:36:41.487Z,12.40
2023-01-28T17:39:21.354Z,12.70
2023-01-28T17:41:57.107Z,12.74
2023-01-28T17:44:29.227Z,12.60
2023-01-28T17:47:02.948Z,12.73
2023-01-28T17:49:35.202Z,11.71
2023-01-28T17:52:11.985Z,12.40
2023-01-28T17:54:45.822Z,11.94
2023-01-28T17:57:18.514Z,10.93
2023-01-28T17:59:50.181Z,12.20
2023-01-28T18:02:25.006Z,12.12
2023-01-28T18:04:56.498Z,11.28
2023-01-28T18:07:28.686Z,11.90
2023-01-28T18:10:00.034Z,12.12
2023-01-28T18:12:32.184Z,11.62
2023-01-28T18:15:10.309Z,11.58
2023-01-28T18:17:50.269Z,10.96
2023-01-28T18:20:24.160Z,11.99
2023-01-28T18:22:58.126Z,10.39
2023-01-28T18:25:30.757Z,10.42
2023-01-28T18:28:03.866Z,10.97
2023-01-28T18:30:35.713Z,11.11
2023-01-28T18:33:07.566Z,10.94
2023-01-28T18:35:46.545Z,11.19
2023-01-28T18:38:22.044Z,10.53
2023-01-28T18:40:58.262Z,10.21
2023-01-28T18:43:31.366Z,10.86
2023-01-28T18:46:03.915Z,11.02
2023-01-28T18:48:35.687Z,10.65
2023-01-28T18:51:17.485Z,10.98
2023-01-28T18:53:43.276Z,11.11
2023-01-28T18:56:15.267Z,12.03
2023-01-28T18:58:46.267Z,11.55
2023-01-28T19:01:21.333Z,12.05
2023-01-28T19:03:57.370Z,11.27
2023-01-28T19:06:31.346Z,11.10
2023-01-28T19:09:07.624Z,10.83
2023-01-28T19:11:43.181Z,11.77
2023-01-28T19:14:16.532Z,11.30
2023-01-28T19:16:47.508Z,11.46
2023-01-28T19:19:20.260Z,10.85
2023-01-28T19:21:54.985Z,10.08
2023-01-28T19:24:27.662Z,11.00
2023-01-28T19:27:02.089Z,11.50
2023-01-28T19:29:35.471Z,11.38
2023-01-28T19:32:10.559Z,11.55
2023-01-28T19:34:44.288Z,11.93
2023-01-28T19:37:18.211Z,11.15
2023-01-28T19:39:50.683Z,11.72
2023-01-28T19:42:26.308Z,11.35
2023-01-28T19:45:01.931Z,11.26
2023-01-28T19:47:35.464Z,11.43
2023-01-28T19:50:11.035Z,11.06
2023-01-28T19:52:43.172Z,11.13
2023-01-28T19:55:15.830Z,11.44
2023-01-28T19:57:51.300Z,11.89
2023-01-28T20:00:23.426Z,10.70
2023-01-28T20:02:57.532Z,11.49
2023-01-28T20:05:29.933Z,12.30
2023-01-28T20:08:03.936Z,10.83
2023-01-28T20:10:40.824Z,11.74
2023-01-28T20:13:14.259Z,11.57
2023-01-28T20:15:48.249Z,11.87
2023-01-28T20:18:25.458Z,10.83
2023-01-28T20:20:58.335Z,10.53
2023-01-28T20:23:30.149Z,10.82
2023-01-28T20:26:02.875Z,11.49
2023-01-28T20:28:38.348Z,11.57
2023-01-28T20:31:13.906Z,11.22
2023-01-28T20:33:46.810Z,11.64
2023-01-28T20:36:21.948Z,10.70
2023-01-28T20:38:55.877Z,11.63
2023-01-28T20:41:29.633Z,10.90
2023-01-28T20:44:05.850Z,10.32
2023-01-28T20:46:37.933Z,11.01
2023-01-28T20:49:11.630Z,11.00
2023-01-28T20:51:47.653Z,10.70
2023-01-28T20:54:23.711Z,10.86
2023-01-28T20:56:58.094Z,10.73
2023-01-28T20:59:32.051Z,11.54
2023-01-28T21:02:08.725Z,11.44
2023-01-28T21:04:40.930Z,11.49
2023-01-28T21:07:17.157Z,11.89
2023-01-28T21:09:52.479Z,11.01
2023-01-28T21:12:25.592Z,11.45
2023-01-28T21:15:02.338Z,11.46
2023-01-28T21:17:39.201Z,10.96
2023-01-28T21:20:14.460Z,11.09
2023-01-28T21:22:57.474Z,11.29
2023-01-28T21:25:29.180Z,11.41
2023-01-28T21:28:02.556Z,11.93
2023-01-28T21:30:34.869Z,11.03
2023-01-28T21:33:11.215Z,11.25
2023-01-28T21:35:47.394Z,11.50
2023-01-28T21:38:22.519Z,10.63
2023-01-28T21:40:58.362Z,10.65
2023-01-28T21:43:34.174Z,11.24
2023-01-28T21:46:11.286Z,11.90
2023-01-28T21:48:45.386Z,12.01
2023-01-28T21:51:36.724Z,11.51
2023-01-28T21:54:14.326Z,11.43
2023-01-28T21:56:52.340Z,11.21
2023-01-28T21:59:31.491Z,10.31
2023-01-28T22:02:10.339Z,11.51
2023-01-28T22:04:54.080Z,11.26
2023-01-28T22:07:26.962Z,11.60
2023-01-28T22:09:57.689Z,11.38
2023-01-28T22:12:31.750Z,11.58
2023-01-28T22:15:05.147Z,11.20
2023-01-28T22:17:38.200Z,11.06
2023-01-28T22:20:10.863Z,11.66
2023-01-28T22:22:42.901Z,10.93
2023-01-28T22:25:19.422Z,11.48
2023-01-28T22:27:53.501Z,11.64
2023-01-28T22:30:24.538Z,10.20
2023-01-28T22:33:05.341Z,11.32
2023-01-28T22:35:41.426Z,10.69
2023-01-28T22:38:13.211Z,11.69
2023-01-28T22:40:46.303Z,11.48
2023-01-28T22:43:19.187Z,10.85
2023-01-28T22:45:59.055Z,11.30
2023-01-28T22:48:31.379Z,11.38
2023-01-28T22:51:10.675Z,12.06
2023-01-28T22:53:42.907Z,10.94
2023-01-28T22:56:14.466Z,11.68
2023-01-28T22:58:56.741Z,12.26
2023-01-28T23:01:29.758Z,12.24
2023-01-28T23:04:02.318Z,11.75
2023-01-28T23:06:34.830Z,12.23
2023-01-28T23:09:07.415Z,11.92
2023-01-28T23:11:38.961Z,11.76
2023-01-28T23:14:30.387Z,12.18
2023-01-28T23:17:20.937Z,11.59
2023-01-28T23:20:13.785Z,12.01
2023-01-28T23:23:04.605Z,11.82
2023-01-28T23:25:37.194Z,12.16
2023-01-28T23:28:10.531Z,11.08
2023-01-28T23:30:52.036Z,11.25
2023-01-28T23:33:31.045Z,11.54
2023-01-28T23:36:03.503Z,11.30
2023-01-28T23:38:35.481Z,10.88
2023-01-28T23:41:08.609Z,11.39
2023-01-28T23:43:39.511Z,11.98
2023-01-28T23:46:10.579Z,11.76
2023-01-28T23:48:41.255Z,11.11
2023-01-28T23:51:13.073Z,11.57
2023-01-28T23:53:44.824Z,11.36
2023-01-28T23:56:15.443Z,12.15
2023-01-28T23:58:45.969Z,10.47
